UAE221 OMDB-KDFW
Flight info
| Callsign | UAE221 |
|---|---|
| Flight time | N/A |
| Altitude | 32000 |
| Route | RIDAP M557 TUMAK L602 TASMI DCT ODALI/N0475F340 UL852 NEGEM DCT TEGRI DCT ABETI DCT SNU DCT RENKA DCT MAMOR DCT PETIX DCT TUSUK/N0469F360 DCT ADKUV DCT BUB L608 DENUT L610 KOPUL Q60 OKSAW DCT FELCA DCT OFSOX DCT SLANY DCT MALOT/M082F360 DCT 5330N02000W 5330N03000W 53N040W 5130N05000W DCT UMESI/N0475F360 DCT MIILS/N0468F380 Q907 ATENE/N0474F400 Q907 SIKBO Q951 SVM DCT FWA DCT FAM DCT FSM DCT BYP FINGR1 |
| Aircraft | B77L/H-SDE1E2E3FGHIJ2J3J4J5M1RWXY/LB1D1 |
Departure
| Time | 2026-04-25 16:13 |
|---|---|
| Airport | Dubai International Airport (OMDB) |
Arrival
| Time | N/A |
|---|---|
| Airport | Dallas Fort Worth International Airport (KDFW) |
| Time | Latitude | Longitude | Altitude | Speed | Heading |
|---|---|---|---|---|---|
| 2026-04-25 15:16 | 25.24595 | 55.36427 | 26 ft | 0 kts | 31° |
| 2026-04-25 15:56 | 25.24594 | 55.36426 | 25 ft | 2 kts | 31° |
| 2026-04-25 15:56 | 25.24572 | 55.36411 | 29 ft | 4 kts | 31° |
| 2026-04-25 15:56 | 25.24549 | 55.36395 | 26 ft | 4 kts | 45° |
| 2026-04-25 15:56 | 25.24535 | 55.36372 | 27 ft | 4 kts | 80° |
| 2026-04-25 15:57 | 25.24538 | 55.36346 | 28 ft | 2 kts | 121° |
| 2026-04-25 15:57 | 25.24538 | 55.36344 | 28 ft | 0 kts | 121° |
| 2026-04-25 16:04 | 25.24538 | 55.36346 | 30 ft | 1 kts | 121° |
| 2026-04-25 16:04 | 25.24532 | 55.36355 | 26 ft | 2 kts | 121° |
| 2026-04-25 16:04 | 25.24516 | 55.36385 | 29 ft | 10 kts | 121° |
| 2026-04-25 16:05 | 25.24472 | 55.36467 | 28 ft | 13 kts | 117° |
| 2026-04-25 16:05 | 25.24454 | 55.36560 | 27 ft | 13 kts | 84° |
| 2026-04-25 16:05 | 25.24558 | 55.36709 | 29 ft | 13 kts | 30° |
| 2026-04-25 16:06 | 25.24634 | 55.36759 | 28 ft | 13 kts | 32° |
| 2026-04-25 16:06 | 25.24709 | 55.36810 | 31 ft | 13 kts | 37° |
| 2026-04-25 16:06 | 25.24724 | 55.36898 | 29 ft | 13 kts | 114° |
| 2026-04-25 16:06 | 25.24679 | 55.36982 | 31 ft | 13 kts | 121° |
| 2026-04-25 16:07 | 25.24634 | 55.37066 | 31 ft | 13 kts | 120° |
| 2026-04-25 16:07 | 25.24626 | 55.37080 | 26 ft | 5 kts | 121° |
| 2026-04-25 16:07 | 25.24595 | 55.37138 | 29 ft | 5 kts | 120° |
| 2026-04-25 16:07 | 25.24560 | 55.37196 | 30 ft | 15 kts | 123° |
| 2026-04-25 16:08 | 25.24498 | 55.37305 | 30 ft | 16 kts | 121° |
| 2026-04-25 16:08 | 25.24439 | 55.37410 | 29 ft | 15 kts | 122° |
| 2026-04-25 16:08 | 25.24384 | 55.37512 | 29 ft | 15 kts | 120° |
| 2026-04-25 16:08 | 25.24341 | 55.37586 | 27 ft | 10 kts | 124° |
| 2026-04-25 16:09 | 25.24303 | 55.37651 | 29 ft | 10 kts | 123° |
| 2026-04-25 16:09 | 25.24267 | 55.37715 | 31 ft | 9 kts | 121° |
| 2026-04-25 16:09 | 25.24283 | 55.37778 | 26 ft | 10 kts | 38° |
| 2026-04-25 16:09 | 25.24337 | 55.37820 | 28 ft | 10 kts | 35° |
| 2026-04-25 16:10 | 25.24392 | 55.37862 | 31 ft | 10 kts | 35° |
| 2026-04-25 16:10 | 25.24446 | 55.37903 | 34 ft | 10 kts | 33° |
| 2026-04-25 16:10 | 25.24502 | 55.37944 | 34 ft | 10 kts | 34° |
| 2026-04-25 16:10 | 25.24566 | 55.37989 | 30 ft | 12 kts | 32° |
| 2026-04-25 16:11 | 25.24638 | 55.38043 | 30 ft | 13 kts | 33° |
| 2026-04-25 16:11 | 25.24713 | 55.38094 | 34 ft | 13 kts | 25° |
| 2026-04-25 16:11 | 25.24788 | 55.38062 | 34 ft | 13 kts | 305° |
| 2026-04-25 16:11 | 25.24867 | 55.37914 | 34 ft | 47 kts | 301° |
| 2026-04-25 16:12 | 25.25148 | 55.37411 | 36 ft | 106 kts | 301° |
| 2026-04-25 16:12 | 25.25625 | 55.36553 | 33 ft | 155 kts | 302° |
| 2026-04-25 16:12 | 25.26255 | 55.35419 | 92 ft | 184 kts | 302° |
| 2026-04-25 16:12 | 25.26474 | 55.35031 | 208 ft | 184 kts | 302° |
| 2026-04-25 16:13 | 25.27605 | 55.32987 | 830 ft | 188 kts | 302° |
| 2026-04-25 16:13 | 25.28284 | 55.31764 | 1271 ft | 189 kts | 302° |
| 2026-04-25 16:13 | 25.28977 | 55.30517 | 1641 ft | 192 kts | 302° |
| 2026-04-25 16:13 | 25.29710 | 55.29210 | 1777 ft | 208 kts | 304° |
| 2026-04-25 16:14 | 25.30567 | 55.27846 | 1944 ft | 224 kts | 305° |
| 2026-04-25 16:14 | 25.31505 | 55.26383 | 2168 ft | 240 kts | 305° |
| 2026-04-25 16:14 | 25.32477 | 55.24865 | 2558 ft | 249 kts | 305° |
| 2026-04-25 16:14 | 25.33511 | 55.23248 | 2933 ft | 259 kts | 304° |
| 2026-04-25 16:15 | 25.34558 | 55.21600 | 3438 ft | 264 kts | 304° |
| 2026-04-25 16:15 | 25.35571 | 55.19898 | 3936 ft | 265 kts | 293° |
| 2026-04-25 16:15 | 25.35884 | 55.17906 | 4349 ft | 267 kts | 267° |
| 2026-04-25 16:15 | 25.35769 | 55.15839 | 4839 ft | 270 kts | 268° |
| 2026-04-25 16:16 | 25.35684 | 55.13793 | 5439 ft | 271 kts | 268° |
| 2026-04-25 16:16 | 25.35603 | 55.11701 | 6006 ft | 273 kts | 269° |
| 2026-04-25 16:16 | 25.35523 | 55.09604 | 6555 ft | 275 kts | 269° |
| 2026-04-25 16:16 | 25.35442 | 55.07482 | 7091 ft | 277 kts | 268° |
| 2026-04-25 16:17 | 25.35363 | 55.05337 | 7614 ft | 279 kts | 269° |
| 2026-04-25 16:17 | 25.35285 | 55.03178 | 8119 ft | 282 kts | 268° |
| 2026-04-25 16:17 | 25.35207 | 55.01002 | 8645 ft | 284 kts | 269° |
| 2026-04-25 16:17 | 25.35130 | 54.98893 | 9128 ft | 286 kts | 269° |
| 2026-04-25 16:18 | 25.35047 | 54.96617 | 9591 ft | 289 kts | 268° |
| 2026-04-25 16:18 | 25.35020 | 54.95888 | 9757 ft | 290 kts | 268° |
| 2026-04-25 16:18 | 25.34883 | 54.92146 | 10405 ft | 302 kts | 268° |
| 2026-04-25 16:18 | 25.35015 | 54.89792 | 10473 ft | 315 kts | 284° |
| 2026-04-25 16:19 | 25.35710 | 54.87424 | 10635 ft | 332 kts | 288° |
| 2026-04-25 16:19 | 25.36475 | 54.84946 | 10784 ft | 350 kts | 287° |
| 2026-04-25 16:19 | 25.37256 | 54.82327 | 10934 ft | 367 kts | 287° |
| 2026-04-25 16:20 | 25.38853 | 54.76810 | 11834 ft | 384 kts | 286° |
| 2026-04-25 16:20 | 25.39661 | 54.73983 | 12501 ft | 387 kts | 286° |
| 2026-04-25 16:20 | 25.41294 | 54.68289 | 13870 ft | 390 kts | 286° |
| 2026-04-25 16:21 | 25.42126 | 54.65415 | 14457 ft | 395 kts | 285° |
| 2026-04-25 16:21 | 25.42967 | 54.62509 | 15053 ft | 398 kts | 285° |
| 2026-04-25 16:21 | 25.43819 | 54.59575 | 15628 ft | 402 kts | 285° |
| 2026-04-25 16:21 | 25.44684 | 54.56630 | 16216 ft | 404 kts | 286° |
| 2026-04-25 16:22 | 25.45562 | 54.53663 | 16787 ft | 406 kts | 286° |
| 2026-04-25 16:22 | 25.46448 | 54.50673 | 17310 ft | 411 kts | 285° |
| 2026-04-25 16:22 | 25.47328 | 54.47651 | 17871 ft | 414 kts | 285° |
| 2026-04-25 16:22 | 25.48214 | 54.44614 | 18425 ft | 415 kts | 285° |
| 2026-04-25 16:23 | 25.49108 | 54.41565 | 18893 ft | 418 kts | 285° |
| 2026-04-25 16:23 | 25.50014 | 54.38486 | 19381 ft | 421 kts | 285° |
| 2026-04-25 16:23 | 25.50908 | 54.35436 | 19908 ft | 423 kts | 285° |
| 2026-04-25 16:23 | 25.51815 | 54.32336 | 20454 ft | 424 kts | 285° |
| 2026-04-25 16:24 | 25.52725 | 54.29218 | 20949 ft | 426 kts | 285° |
| 2026-04-25 16:24 | 25.53637 | 54.26089 | 21410 ft | 429 kts | 285° |
| 2026-04-25 16:24 | 25.54558 | 54.22939 | 21866 ft | 431 kts | 285° |
| 2026-04-25 16:24 | 25.55492 | 54.19777 | 22308 ft | 433 kts | 285° |
| 2026-04-25 16:25 | 25.56435 | 54.16598 | 22739 ft | 435 kts | 285° |
| 2026-04-25 16:25 | 25.56754 | 54.15522 | 22883 ft | 436 kts | 285° |
| 2026-04-25 16:25 | 25.58327 | 54.10202 | 23579 ft | 439 kts | 285° |
| 2026-04-25 16:25 | 25.59274 | 54.06988 | 23999 ft | 441 kts | 285° |
| 2026-04-25 16:26 | 25.60216 | 54.03742 | 24408 ft | 442 kts | 285° |
| 2026-04-25 16:26 | 25.60830 | 54.01587 | 24655 ft | 443 kts | 285° |
| 2026-04-25 16:26 | 25.62052 | 53.97255 | 25152 ft | 446 kts | 284° |
| 2026-04-25 16:26 | 25.62977 | 53.93973 | 25527 ft | 447 kts | 284° |
| 2026-04-25 16:27 | 25.63907 | 53.90677 | 25885 ft | 449 kts | 284° |
| 2026-04-25 16:27 | 25.64842 | 53.87371 | 26235 ft | 451 kts | 284° |
| 2026-04-25 16:27 | 25.65780 | 53.84054 | 26573 ft | 453 kts | 284° |
| 2026-04-25 16:27 | 25.66417 | 53.81800 | 26792 ft | 454 kts | 284° |
| 2026-04-25 16:28 | 25.67672 | 53.77357 | 27252 ft | 456 kts | 284° |
| 2026-04-25 16:28 | 25.68312 | 53.75087 | 27470 ft | 457 kts | 284° |
| 2026-04-25 16:28 | 25.69251 | 53.71758 | 27783 ft | 459 kts | 284° |
| 2026-04-25 16:28 | 25.70204 | 53.68373 | 28101 ft | 460 kts | 284° |
| 2026-04-25 16:29 | 25.71157 | 53.64978 | 28401 ft | 462 kts | 284° |
| 2026-04-25 16:29 | 25.72112 | 53.61572 | 28696 ft | 464 kts | 284° |
| 2026-04-25 16:29 | 25.73074 | 53.58139 | 28955 ft | 466 kts | 284° |
| 2026-04-25 16:29 | 25.74035 | 53.54709 | 29263 ft | 466 kts | 284° |
| 2026-04-25 16:30 | 25.74997 | 53.51272 | 29631 ft | 465 kts | 284° |
| 2026-04-25 16:30 | 25.75959 | 53.47848 | 30056 ft | 464 kts | 284° |
| 2026-04-25 16:30 | 25.76924 | 53.44442 | 30506 ft | 461 kts | 284° |
| 2026-04-25 16:30 | 25.77881 | 53.41060 | 30941 ft | 459 kts | 284° |
| 2026-04-25 16:31 | 25.78834 | 53.37689 | 31357 ft | 457 kts | 284° |
| 2026-04-25 16:31 | 25.79780 | 53.34336 | 31715 ft | 456 kts | 284° |
| 2026-04-25 16:31 | 25.80726 | 53.30973 | 31916 ft | 458 kts | 284° |
| 2026-04-25 16:32 | 25.82622 | 53.24224 | 31957 ft | 457 kts | 284° |
| 2026-04-25 16:32 | 25.84577 | 53.17595 | 31962 ft | 454 kts | 288° |
| 2026-04-25 16:33 | 25.87185 | 53.11180 | 31967 ft | 456 kts | 290° |
| 2026-04-25 16:33 | 25.89819 | 53.04773 | 31965 ft | 456 kts | 290° |
| 2026-04-25 16:34 | 25.92435 | 52.98336 | 31965 ft | 457 kts | 290° |
| 2026-04-25 16:34 | 25.95037 | 52.91902 | 31962 ft | 457 kts | 290° |
| 2026-04-25 16:35 | 25.97643 | 52.85454 | 31962 ft | 457 kts | 290° |
| 2026-04-25 16:35 | 26.00248 | 52.79003 | 31969 ft | 457 kts | 290° |
| 2026-04-25 16:36 | 26.02874 | 52.72563 | 31971 ft | 458 kts | 291° |
| 2026-04-25 16:36 | 26.05764 | 52.66220 | 31974 ft | 459 kts | 292° |
| 2026-04-25 16:37 | 26.08647 | 52.59933 | 31974 ft | 459 kts | 292° |
| 2026-04-25 16:37 | 26.11503 | 52.53579 | 31973 ft | 459 kts | 292° |
| 2026-04-25 16:38 | 26.14378 | 52.47224 | 31971 ft | 459 kts | 292° |
| 2026-04-25 16:38 | 26.17256 | 52.40879 | 31973 ft | 459 kts | 292° |
| 2026-04-25 16:39 | 26.20132 | 52.34520 | 31970 ft | 459 kts | 292° |
| 2026-04-25 16:39 | 26.22982 | 52.28169 | 31964 ft | 458 kts | 291° |
| 2026-04-25 16:40 | 26.25744 | 52.21777 | 31948 ft | 458 kts | 291° |
| 2026-04-25 16:40 | 26.28480 | 52.15419 | 31946 ft | 458 kts | 291° |
| 2026-04-25 16:41 | 26.31243 | 52.09024 | 31936 ft | 458 kts | 291° |
| 2026-04-25 16:41 | 26.35359 | 51.99421 | 31959 ft | 457 kts | 291° |
| 2026-04-25 16:42 | 26.38021 | 51.93000 | 31964 ft | 454 kts | 287° |
| 2026-04-25 16:42 | 26.40168 | 51.86401 | 31966 ft | 453 kts | 286° |
| 2026-04-25 16:43 | 26.42375 | 51.79806 | 31964 ft | 454 kts | 286° |
| 2026-04-25 16:43 | 26.44597 | 51.73261 | 31968 ft | 454 kts | 286° |
| 2026-04-25 16:44 | 26.46824 | 51.66664 | 31974 ft | 454 kts | 286° |
| 2026-04-25 16:44 | 26.49056 | 51.60066 | 31972 ft | 455 kts | 286° |
| 2026-04-25 16:45 | 26.51250 | 51.53442 | 31970 ft | 455 kts | 286° |
| 2026-04-25 16:45 | 26.53443 | 51.46815 | 31965 ft | 455 kts | 286° |
| 2026-04-25 16:46 | 26.55637 | 51.40183 | 31964 ft | 454 kts | 286° |
| 2026-04-25 16:46 | 26.57455 | 51.34690 | 31959 ft | 454 kts | 285° |
| 2026-04-25 16:47 | 26.60003 | 51.26972 | 31953 ft | 453 kts | 285° |
| 2026-04-25 16:47 | 26.62185 | 51.20378 | 31951 ft | 452 kts | 285° |
| 2026-04-25 16:48 | 26.64356 | 51.13796 | 31953 ft | 451 kts | 286° |
| 2026-04-25 16:48 | 26.66528 | 51.07209 | 31953 ft | 450 kts | 285° |
| 2026-04-25 16:49 | 26.68678 | 51.00666 | 31953 ft | 450 kts | 285° |
| 2026-04-25 16:49 | 26.70801 | 50.94077 | 31955 ft | 451 kts | 285° |
| 2026-04-25 16:50 | 26.72914 | 50.87472 | 31956 ft | 451 kts | 285° |
| 2026-04-25 16:50 | 26.75029 | 50.80864 | 31953 ft | 451 kts | 285° |
| 2026-04-25 16:51 | 26.77143 | 50.74257 | 31949 ft | 451 kts | 285° |
| 2026-04-25 16:51 | 26.78993 | 50.68799 | 31928 ft | 453 kts | 290° |
| 2026-04-25 16:52 | 26.82706 | 50.61612 | 31949 ft | 460 kts | 299° |
| 2026-04-25 16:52 | 26.86736 | 50.55994 | 31946 ft | 463 kts | 304° |
| 2026-04-25 16:53 | 26.92904 | 50.47727 | 31926 ft | 465 kts | 306° |
| 2026-04-25 16:54 | 26.97353 | 50.42454 | 31930 ft | 466 kts | 307° |
| 2026-04-25 16:54 | 27.01811 | 50.37190 | 31946 ft | 465 kts | 307° |
| 2026-04-25 16:55 | 27.06242 | 50.31897 | 31948 ft | 465 kts | 307° |
| 2026-04-25 16:55 | 27.10649 | 50.26582 | 31953 ft | 465 kts | 306° |
| 2026-04-25 16:56 | 27.15074 | 50.21282 | 31954 ft | 467 kts | 309° |
| 2026-04-25 16:56 | 27.20121 | 50.16571 | 31960 ft | 476 kts | 317° |
| 2026-04-25 16:57 | 27.25490 | 50.12216 | 31951 ft | 476 kts | 316° |
| 2026-04-25 16:57 | 27.30827 | 50.07804 | 31949 ft | 476 kts | 316° |
| 2026-04-25 16:58 | 27.36153 | 50.03374 | 31947 ft | 476 kts | 316° |
| 2026-04-25 16:58 | 27.41394 | 49.98843 | 31949 ft | 474 kts | 314° |
| 2026-04-25 16:59 | 27.46550 | 49.94274 | 31942 ft | 474 kts | 314° |
| 2026-04-25 16:59 | 27.51735 | 49.89692 | 31950 ft | 473 kts | 314° |
| 2026-04-25 17:00 | 27.56917 | 49.85127 | 31949 ft | 473 kts | 314° |
| 2026-04-25 17:00 | 27.62107 | 49.80556 | 31950 ft | 472 kts | 314° |
| 2026-04-25 17:01 | 27.67278 | 49.75994 | 31958 ft | 472 kts | 314° |
| 2026-04-25 17:01 | 27.72444 | 49.71429 | 31965 ft | 472 kts | 314° |
| 2026-04-25 17:02 | 27.77623 | 49.66848 | 31964 ft | 472 kts | 314° |
| 2026-04-25 17:02 | 27.82756 | 49.62278 | 31964 ft | 473 kts | 314° |
| 2026-04-25 17:03 | 27.87914 | 49.57659 | 31964 ft | 473 kts | 314° |
| 2026-04-25 17:03 | 27.93072 | 49.53038 | 31971 ft | 473 kts | 314° |
| 2026-04-25 17:04 | 27.98238 | 49.48407 | 31974 ft | 473 kts | 314° |
| 2026-04-25 17:04 | 28.03386 | 49.43787 | 31969 ft | 472 kts | 314° |
| 2026-04-25 17:05 | 28.08505 | 49.39135 | 31983 ft | 471 kts | 313° |
| 2026-04-25 17:05 | 28.16120 | 49.32179 | 31982 ft | 471 kts | 313° |
| 2026-04-25 17:06 | 28.21225 | 49.27516 | 31969 ft | 471 kts | 313° |
| 2026-04-25 17:06 | 28.26321 | 49.22858 | 31964 ft | 469 kts | 313° |
| 2026-04-25 17:07 | 28.31389 | 49.18194 | 31964 ft | 468 kts | 313° |
| 2026-04-25 17:07 | 28.36439 | 49.13526 | 31960 ft | 468 kts | 313° |
| 2026-04-25 17:08 | 28.41593 | 49.08993 | 31965 ft | 472 kts | 318° |
| 2026-04-25 17:08 | 28.47023 | 49.04883 | 31972 ft | 472 kts | 319° |
| 2026-04-25 17:09 | 28.52486 | 49.00752 | 31980 ft | 470 kts | 319° |
| 2026-04-25 17:09 | 28.57936 | 48.96654 | 31962 ft | 471 kts | 318° |
| 2026-04-25 17:10 | 28.63353 | 48.92449 | 31965 ft | 471 kts | 318° |
| 2026-04-25 17:10 | 28.68781 | 48.88257 | 31961 ft | 470 kts | 317° |
| 2026-04-25 17:11 | 28.74177 | 48.84062 | 31979 ft | 470 kts | 318° |
| 2026-04-25 17:11 | 28.79577 | 48.79955 | 31972 ft | 466 kts | 318° |
| 2026-04-25 17:12 | 28.84998 | 48.75757 | 31964 ft | 470 kts | 318° |
| 2026-04-25 17:12 | 28.90443 | 48.71589 | 31976 ft | 472 kts | 319° |
| 2026-04-25 17:13 | 28.94057 | 48.68835 | 31970 ft | 472 kts | 318° |
| 2026-04-25 17:13 | 29.01254 | 48.63215 | 31977 ft | 470 kts | 318° |
| 2026-04-25 17:14 | 29.06686 | 48.59098 | 31970 ft | 469 kts | 318° |
| 2026-04-25 17:14 | 29.11169 | 48.55648 | 31979 ft | 467 kts | 318° |
| 2026-04-25 17:15 | 29.16551 | 48.51482 | 31966 ft | 469 kts | 318° |
| 2026-04-25 17:15 | 29.21958 | 48.47305 | 31970 ft | 469 kts | 318° |
| 2026-04-25 17:16 | 29.27390 | 48.43102 | 31967 ft | 472 kts | 318° |
| 2026-04-25 17:16 | 29.32841 | 48.38869 | 31967 ft | 470 kts | 318° |
| 2026-04-25 17:17 | 29.38218 | 48.34680 | 31985 ft | 471 kts | 318° |
| 2026-04-25 17:17 | 29.43645 | 48.30482 | 32000 ft | 471 kts | 318° |
| 2026-04-25 17:18 | 29.49273 | 48.26547 | 31983 ft | 477 kts | 323° |
| 2026-04-25 17:18 | 29.55097 | 48.22863 | 31991 ft | 479 kts | 323° |
| 2026-04-25 17:19 | 29.60884 | 48.19144 | 31981 ft | 474 kts | 322° |
| 2026-04-25 17:19 | 29.66611 | 48.15361 | 31980 ft | 475 kts | 322° |
| 2026-04-25 17:20 | 29.72352 | 48.11583 | 31978 ft | 475 kts | 322° |
| 2026-04-25 17:20 | 29.78093 | 48.07790 | 31972 ft | 476 kts | 322° |
| 2026-04-25 17:21 | 29.83836 | 48.03988 | 31969 ft | 476 kts | 322° |
| 2026-04-25 17:21 | 29.89583 | 48.00180 | 31963 ft | 476 kts | 322° |
| 2026-04-25 17:22 | 29.94359 | 47.97011 | 31964 ft | 476 kts | 322° |
| 2026-04-25 17:22 | 30.01033 | 47.92579 | 31966 ft | 476 kts | 322° |
| 2026-04-25 17:23 | 30.06545 | 47.88459 | 31961 ft | 470 kts | 317° |
| 2026-04-25 17:23 | 30.11858 | 47.84082 | 31971 ft | 469 kts | 316° |
| 2026-04-25 17:24 | 30.17169 | 47.79689 | 31962 ft | 469 kts | 317° |
| 2026-04-25 17:24 | 30.22492 | 47.75323 | 31965 ft | 470 kts | 317° |
| 2026-04-25 17:25 | 30.27836 | 47.70968 | 31974 ft | 470 kts | 317° |
| 2026-04-25 17:25 | 30.33146 | 47.66641 | 31974 ft | 470 kts | 317° |
| 2026-04-25 17:26 | 30.38490 | 47.62276 | 31972 ft | 470 kts | 317° |
| 2026-04-25 17:26 | 30.43834 | 47.57908 | 31968 ft | 470 kts | 317° |
| 2026-04-25 17:27 | 30.49178 | 47.53535 | 31961 ft | 470 kts | 317° |
| 2026-04-25 17:27 | 30.53625 | 47.49886 | 31963 ft | 470 kts | 317° |
| 2026-04-25 17:28 | 30.59830 | 47.44787 | 31964 ft | 470 kts | 317° |
| 2026-04-25 17:28 | 30.65161 | 47.40403 | 31970 ft | 469 kts | 317° |
| 2026-04-25 17:29 | 30.70484 | 47.36019 | 31971 ft | 469 kts | 317° |
| 2026-04-25 17:29 | 30.75807 | 47.31628 | 31973 ft | 469 kts | 317° |
| 2026-04-25 17:30 | 30.81126 | 47.27236 | 31974 ft | 468 kts | 317° |
| 2026-04-25 17:30 | 30.86440 | 47.22841 | 31975 ft | 468 kts | 317° |
| 2026-04-25 17:31 | 30.91719 | 47.18469 | 31980 ft | 468 kts | 317° |
| 2026-04-25 17:31 | 30.97020 | 47.14072 | 31984 ft | 468 kts | 317° |
| 2026-04-25 17:32 | 31.02330 | 47.09662 | 31981 ft | 468 kts | 317° |
| 2026-04-25 17:32 | 31.07645 | 47.05241 | 31989 ft | 468 kts | 317° |
| 2026-04-25 17:33 | 31.12945 | 47.00828 | 31989 ft | 468 kts | 317° |
| 2026-04-25 17:33 | 31.18246 | 46.96409 | 31996 ft | 468 kts | 317° |
| 2026-04-25 17:34 | 31.23542 | 46.91984 | 32002 ft | 467 kts | 317° |
| 2026-04-25 17:34 | 31.28832 | 46.87560 | 31999 ft | 467 kts | 317° |
| 2026-04-25 17:35 | 31.34079 | 46.83165 | 32007 ft | 467 kts | 316° |
| 2026-04-25 17:35 | 31.39363 | 46.78733 | 32031 ft | 466 kts | 316° |
| 2026-04-25 17:36 | 31.44631 | 46.74309 | 32049 ft | 466 kts | 316° |
| 2026-04-25 17:36 | 31.49893 | 46.69885 | 32060 ft | 465 kts | 316° |
| 2026-04-25 17:37 | 31.55149 | 46.65458 | 32067 ft | 464 kts | 316° |
| 2026-04-25 17:37 | 31.60357 | 46.61064 | 32072 ft | 464 kts | 316° |
| 2026-04-25 17:38 | 31.64743 | 46.57358 | 32078 ft | 463 kts | 316° |
| 2026-04-25 17:38 | 31.70822 | 46.52218 | 32087 ft | 462 kts | 316° |
| 2026-04-25 17:39 | 31.76035 | 46.47801 | 32096 ft | 462 kts | 316° |
| 2026-04-25 17:39 | 31.81253 | 46.43376 | 32102 ft | 461 kts | 316° |
| 2026-04-25 17:40 | 31.86420 | 46.38989 | 32124 ft | 461 kts | 315° |
| 2026-04-25 17:40 | 31.91619 | 46.34567 | 32092 ft | 461 kts | 315° |
| 2026-04-25 17:41 | 31.96812 | 46.30143 | 32061 ft | 461 kts | 315° |
| 2026-04-25 17:41 | 32.02004 | 46.25714 | 32054 ft | 460 kts | 315° |
| 2026-04-25 17:42 | 32.07196 | 46.21277 | 32043 ft | 460 kts | 315° |
| 2026-04-25 17:42 | 32.12341 | 46.16874 | 32042 ft | 460 kts | 315° |
| 2026-04-25 17:43 | 32.17518 | 46.12440 | 32045 ft | 459 kts | 315° |
| 2026-04-25 17:43 | 32.22696 | 46.07998 | 32049 ft | 459 kts | 315° |
| 2026-04-25 17:44 | 32.27863 | 46.03559 | 32046 ft | 459 kts | 315° |
| 2026-04-25 17:44 | 32.33035 | 45.99107 | 32048 ft | 460 kts | 315° |
| 2026-04-25 17:45 | 32.36458 | 45.96157 | 32057 ft | 460 kts | 315° |
| 2026-04-25 17:45 | 32.43384 | 45.90183 | 32051 ft | 461 kts | 315° |
| 2026-04-25 17:46 | 32.48542 | 45.85724 | 32060 ft | 462 kts | 315° |
| 2026-04-25 17:46 | 32.53743 | 45.81223 | 32055 ft | 463 kts | 316° |
| 2026-04-25 17:47 | 32.58950 | 45.76710 | 32055 ft | 464 kts | 316° |
| 2026-04-25 17:47 | 32.64166 | 45.72182 | 32061 ft | 465 kts | 316° |
| 2026-04-25 17:48 | 32.72016 | 45.65356 | 32066 ft | 467 kts | 316° |
| 2026-04-25 17:49 | 32.77260 | 45.60787 | 32067 ft | 468 kts | 316° |
| 2026-04-25 17:49 | 32.82515 | 45.56203 | 32063 ft | 469 kts | 317° |
| 2026-04-25 17:50 | 32.87783 | 45.51600 | 32066 ft | 470 kts | 317° |
| 2026-04-25 17:50 | 32.93029 | 45.47008 | 32054 ft | 471 kts | 317° |
| 2026-04-25 17:51 | 32.98314 | 45.42378 | 32055 ft | 471 kts | 317° |
| 2026-04-25 17:51 | 33.03599 | 45.37737 | 32057 ft | 472 kts | 317° |
| 2026-04-25 17:52 | 33.08895 | 45.33080 | 32049 ft | 473 kts | 317° |
| 2026-04-25 17:52 | 33.14196 | 45.28412 | 32045 ft | 474 kts | 317° |
| 2026-04-25 17:53 | 33.19498 | 45.23737 | 32040 ft | 474 kts | 318° |
| 2026-04-25 17:53 | 33.24803 | 45.19050 | 32033 ft | 475 kts | 318° |
| 2026-04-25 17:54 | 33.30112 | 45.14357 | 32027 ft | 475 kts | 318° |
| 2026-04-25 17:54 | 33.35422 | 45.09653 | 32036 ft | 475 kts | 318° |
| 2026-04-25 17:55 | 33.40731 | 45.04941 | 32029 ft | 475 kts | 318° |
| 2026-04-25 17:55 | 33.46038 | 45.00226 | 32019 ft | 475 kts | 318° |
| 2026-04-25 17:56 | 33.51340 | 44.95506 | 32015 ft | 475 kts | 318° |
| 2026-04-25 17:56 | 33.56609 | 44.90806 | 32013 ft | 475 kts | 318° |
| 2026-04-25 17:57 | 33.61914 | 44.86071 | 32009 ft | 475 kts | 318° |
| 2026-04-25 17:57 | 33.67216 | 44.81330 | 32000 ft | 475 kts | 318° |
| 2026-04-25 17:58 | 33.72511 | 44.76587 | 32001 ft | 474 kts | 319° |
| 2026-04-25 17:58 | 33.77812 | 44.71831 | 31999 ft | 474 kts | 319° |
| 2026-04-25 17:59 | 33.83074 | 44.67104 | 32001 ft | 474 kts | 319° |
| 2026-04-25 17:59 | 33.88361 | 44.62347 | 32001 ft | 474 kts | 319° |
| 2026-04-25 18:00 | 33.93639 | 44.57589 | 31999 ft | 474 kts | 319° |
| 2026-04-25 18:00 | 33.98916 | 44.52825 | 32001 ft | 474 kts | 319° |
| 2026-04-25 18:01 | 34.04188 | 44.48057 | 31998 ft | 474 kts | 319° |
| 2026-04-25 18:01 | 34.09465 | 44.43276 | 32003 ft | 474 kts | 319° |
| 2026-04-25 18:02 | 34.14697 | 44.38528 | 31999 ft | 474 kts | 319° |
| 2026-04-25 18:02 | 34.19971 | 44.33739 | 32006 ft | 473 kts | 319° |
| 2026-04-25 18:03 | 34.25238 | 44.28949 | 32010 ft | 473 kts | 319° |
| 2026-04-25 18:03 | 34.30498 | 44.24153 | 32009 ft | 473 kts | 319° |
| 2026-04-25 18:04 | 34.35758 | 44.19349 | 32014 ft | 473 kts | 319° |
| 2026-04-25 18:04 | 34.40987 | 44.14566 | 31985 ft | 474 kts | 319° |
| 2026-04-25 18:05 | 34.46246 | 44.09749 | 31985 ft | 474 kts | 319° |
| 2026-04-25 18:05 | 34.51502 | 44.04929 | 31988 ft | 473 kts | 319° |
| 2026-04-25 18:06 | 34.55872 | 44.00914 | 31994 ft | 474 kts | 319° |
| 2026-04-25 18:06 | 34.61126 | 43.96079 | 31987 ft | 474 kts | 319° |
| 2026-04-25 18:07 | 34.66377 | 43.91240 | 31984 ft | 474 kts | 319° |
| 2026-04-25 18:07 | 34.71641 | 43.86381 | 31982 ft | 474 kts | 319° |
| 2026-04-25 18:08 | 34.76891 | 43.81527 | 31986 ft | 474 kts | 319° |
| 2026-04-25 18:08 | 34.82142 | 43.76663 | 31989 ft | 474 kts | 319° |
| 2026-04-25 18:09 | 34.87394 | 43.71789 | 31989 ft | 474 kts | 319° |
| 2026-04-25 18:09 | 34.92651 | 43.66905 | 32000 ft | 475 kts | 319° |
| 2026-04-25 18:10 | 34.97872 | 43.62045 | 32001 ft | 475 kts | 319° |
| 2026-04-25 18:10 | 35.03134 | 43.57140 | 32002 ft | 476 kts | 319° |
| 2026-04-25 18:11 | 35.08401 | 43.52220 | 32000 ft | 477 kts | 318° |
| 2026-04-25 18:11 | 35.13668 | 43.47295 | 32008 ft | 477 kts | 318° |
| 2026-04-25 18:12 | 35.18934 | 43.42359 | 32010 ft | 477 kts | 318° |
| 2026-04-25 18:12 | 35.24202 | 43.37418 | 32005 ft | 477 kts | 318° |
| 2026-04-25 18:13 | 35.29466 | 43.32468 | 32008 ft | 477 kts | 318° |
| 2026-04-25 18:13 | 35.34722 | 43.27517 | 32014 ft | 477 kts | 318° |
| 2026-04-25 18:14 | 35.42609 | 43.20074 | 32015 ft | 477 kts | 318° |
| 2026-04-25 18:14 | 35.47867 | 43.15098 | 32019 ft | 477 kts | 318° |
| 2026-04-25 18:15 | 35.53089 | 43.10153 | 32018 ft | 477 kts | 318° |
| 2026-04-25 18:15 | 35.58345 | 43.05168 | 32017 ft | 477 kts | 318° |
| 2026-04-25 18:16 | 35.63593 | 43.00180 | 32021 ft | 477 kts | 318° |
| 2026-04-25 18:17 | 35.71438 | 42.92706 | 32017 ft | 478 kts | 316° |
| 2026-04-25 18:17 | 35.76701 | 42.87683 | 32034 ft | 480 kts | 316° |
| 2026-04-25 18:18 | 35.81987 | 42.82626 | 32033 ft | 482 kts | 316° |
| 2026-04-25 18:18 | 35.87301 | 42.77535 | 32032 ft | 484 kts | 316° |
| 2026-04-25 18:19 | 35.92632 | 42.72421 | 32028 ft | 485 kts | 316° |
| 2026-04-25 18:19 | 35.97956 | 42.67302 | 32025 ft | 485 kts | 316° |
| 2026-04-25 18:20 | 36.03281 | 42.62176 | 32041 ft | 485 kts | 316° |
| 2026-04-25 18:20 | 36.08587 | 42.57060 | 32033 ft | 483 kts | 316° |
| 2026-04-25 18:21 | 36.13874 | 42.51953 | 32033 ft | 481 kts | 315° |
| 2026-04-25 18:21 | 36.19149 | 42.46845 | 32036 ft | 480 kts | 315° |
| 2026-04-25 18:22 | 36.24368 | 42.41783 | 32037 ft | 479 kts | 315° |
| 2026-04-25 18:22 | 36.29618 | 42.36683 | 32047 ft | 479 kts | 315° |
| 2026-04-25 18:23 | 36.34868 | 42.31575 | 32074 ft | 480 kts | 315° |
| 2026-04-25 18:23 | 36.40120 | 42.26450 | 32076 ft | 481 kts | 315° |
| 2026-04-25 18:24 | 36.45392 | 42.21301 | 32074 ft | 482 kts | 315° |
| 2026-04-25 18:24 | 36.50666 | 42.16141 | 32075 ft | 483 kts | 315° |
| 2026-04-25 18:25 | 36.55945 | 42.10968 | 32075 ft | 483 kts | 315° |
| 2026-04-25 18:25 | 36.61221 | 42.05789 | 32071 ft | 482 kts | 315° |
| 2026-04-25 18:26 | 36.66450 | 42.00648 | 32070 ft | 481 kts | 315° |
| 2026-04-25 18:26 | 36.71700 | 41.95474 | 32062 ft | 481 kts | 315° |
| 2026-04-25 18:27 | 36.76950 | 41.90290 | 32066 ft | 481 kts | 315° |
| 2026-04-25 18:27 | 36.82195 | 41.85102 | 32066 ft | 481 kts | 315° |
| 2026-04-25 18:28 | 36.87435 | 41.79910 | 32067 ft | 481 kts | 315° |
| 2026-04-25 18:28 | 36.92679 | 41.74708 | 32063 ft | 481 kts | 315° |
| 2026-04-25 18:29 | 37.00533 | 41.66897 | 32065 ft | 481 kts | 315° |
| 2026-04-25 18:30 | 37.10978 | 41.56473 | 32064 ft | 481 kts | 315° |
| 2026-04-25 18:30 | 37.16213 | 41.51235 | 32065 ft | 481 kts | 315° |
| 2026-04-25 18:31 | 37.21440 | 41.45996 | 32069 ft | 481 kts | 315° |
| 2026-04-25 18:31 | 37.26673 | 41.40741 | 32067 ft | 481 kts | 315° |
| 2026-04-25 18:32 | 37.31895 | 41.35486 | 32051 ft | 481 kts | 315° |
| 2026-04-25 18:32 | 37.37108 | 41.30235 | 32052 ft | 480 kts | 315° |
| 2026-04-25 18:33 | 37.42284 | 41.25006 | 32058 ft | 480 kts | 315° |
| 2026-04-25 18:33 | 37.47482 | 41.19745 | 32055 ft | 480 kts | 315° |
| 2026-04-25 18:34 | 37.52694 | 41.14462 | 32060 ft | 480 kts | 315° |
| 2026-04-25 18:34 | 37.57904 | 41.09172 | 32048 ft | 480 kts | 315° |
| 2026-04-25 18:35 | 37.63100 | 41.03891 | 32051 ft | 480 kts | 315° |
| 2026-04-25 18:35 | 37.68295 | 40.98596 | 32060 ft | 480 kts | 315° |
| 2026-04-25 18:36 | 37.73489 | 40.93288 | 32050 ft | 481 kts | 315° |
| 2026-04-25 18:36 | 37.78685 | 40.87974 | 32063 ft | 481 kts | 315° |
| 2026-04-25 18:37 | 37.83850 | 40.82680 | 32061 ft | 480 kts | 314° |
| 2026-04-25 18:37 | 37.89037 | 40.77354 | 32059 ft | 481 kts | 314° |
| 2026-04-25 18:38 | 37.94232 | 40.72013 | 32063 ft | 480 kts | 314° |
| 2026-04-25 18:38 | 37.99415 | 40.66671 | 32063 ft | 480 kts | 314° |
| 2026-04-25 18:39 | 38.04598 | 40.61321 | 32070 ft | 480 kts | 314° |
| 2026-04-25 18:39 | 38.09770 | 40.55966 | 32063 ft | 479 kts | 314° |
| 2026-04-25 18:40 | 38.14931 | 40.50619 | 32073 ft | 478 kts | 314° |
| 2026-04-25 18:40 | 38.20079 | 40.45273 | 32077 ft | 478 kts | 314° |
| 2026-04-25 18:41 | 38.25227 | 40.39918 | 32071 ft | 478 kts | 314° |
| 2026-04-25 18:41 | 38.30342 | 40.34587 | 32069 ft | 478 kts | 314° |
| 2026-04-25 18:42 | 38.33785 | 40.30991 | 32080 ft | 478 kts | 314° |
| 2026-04-25 18:42 | 38.40637 | 40.23823 | 32080 ft | 479 kts | 314° |
| 2026-04-25 18:43 | 38.45797 | 40.18413 | 32082 ft | 480 kts | 314° |
| 2026-04-25 18:43 | 38.50958 | 40.12992 | 32071 ft | 480 kts | 314° |
| 2026-04-25 18:44 | 38.56102 | 40.07580 | 32083 ft | 479 kts | 314° |
| 2026-04-25 18:44 | 38.61249 | 40.02155 | 32083 ft | 479 kts | 314° |
| 2026-04-25 18:45 | 38.66383 | 39.96733 | 32074 ft | 478 kts | 314° |
| 2026-04-25 18:45 | 38.71508 | 39.91306 | 32081 ft | 478 kts | 314° |
| 2026-04-25 18:46 | 38.76617 | 39.85889 | 32085 ft | 476 kts | 314° |
| 2026-04-25 18:46 | 38.81685 | 39.80505 | 32091 ft | 476 kts | 315° |
| 2026-04-25 18:47 | 38.86781 | 39.75081 | 32094 ft | 476 kts | 314° |
| 2026-04-25 18:47 | 38.91870 | 39.69650 | 32089 ft | 476 kts | 315° |
| 2026-04-25 18:48 | 38.96957 | 39.64214 | 32090 ft | 475 kts | 315° |
| 2026-04-25 18:48 | 39.02041 | 39.58770 | 32097 ft | 475 kts | 315° |
| 2026-04-25 18:49 | 39.07120 | 39.53320 | 32090 ft | 475 kts | 315° |
| 2026-04-25 18:49 | 39.12199 | 39.47865 | 32090 ft | 475 kts | 315° |
| 2026-04-25 18:50 | 39.17266 | 39.42411 | 32095 ft | 474 kts | 315° |
| 2026-04-25 18:50 | 39.22292 | 39.36987 | 32094 ft | 474 kts | 315° |
| 2026-04-25 18:51 | 39.25674 | 39.33329 | 32104 ft | 474 kts | 315° |
| 2026-04-25 18:51 | 39.32403 | 39.26042 | 32121 ft | 474 kts | 315° |
| 2026-04-25 18:52 | 39.37453 | 39.20561 | 32118 ft | 474 kts | 315° |
| 2026-04-25 18:52 | 39.41640 | 39.16010 | 32111 ft | 473 kts | 315° |
| 2026-04-25 18:53 | 39.46679 | 39.10519 | 32127 ft | 473 kts | 315° |
| 2026-04-25 18:53 | 39.51715 | 39.05021 | 32098 ft | 473 kts | 315° |
| 2026-04-25 18:54 | 39.59256 | 38.96774 | 32127 ft | 472 kts | 315° |
| 2026-04-25 18:55 | 39.64277 | 38.91263 | 32114 ft | 473 kts | 315° |
| 2026-04-25 18:55 | 39.69300 | 38.85747 | 32107 ft | 472 kts | 315° |
| 2026-04-25 18:56 | 39.74281 | 38.80263 | 32127 ft | 472 kts | 315° |
| 2026-04-25 18:56 | 39.79289 | 38.74737 | 32111 ft | 472 kts | 315° |
| 2026-04-25 18:57 | 39.84293 | 38.69203 | 32114 ft | 472 kts | 315° |
| 2026-04-25 18:57 | 39.89296 | 38.63664 | 32129 ft | 472 kts | 315° |
| 2026-04-25 18:58 | 39.94295 | 38.58116 | 32117 ft | 472 kts | 315° |
| 2026-04-25 18:58 | 40.01784 | 38.49781 | 32128 ft | 471 kts | 315° |
| 2026-04-25 18:59 | 40.11724 | 38.38684 | 32133 ft | 470 kts | 315° |
| 2026-04-25 19:00 | 40.19170 | 38.30341 | 32122 ft | 469 kts | 315° |
| 2026-04-25 19:01 | 40.26566 | 38.22027 | 32126 ft | 470 kts | 315° |
| 2026-04-25 19:01 | 40.31291 | 38.16172 | 32107 ft | 463 kts | 304° |
| 2026-04-25 19:02 | 40.34673 | 38.09088 | 32121 ft | 456 kts | 290° |
| 2026-04-25 19:02 | 40.35842 | 38.05241 | 32123 ft | 454 kts | 288° |
| 2026-04-25 19:03 | 40.38855 | 37.94925 | 32112 ft | 455 kts | 288° |
| 2026-04-25 19:03 | 40.41552 | 37.85870 | 32106 ft | 456 kts | 288° |
| 2026-04-25 19:04 | 40.45028 | 37.74233 | 32119 ft | 457 kts | 288° |
| 2026-04-25 19:05 | 40.49635 | 37.58728 | 32117 ft | 456 kts | 288° |
| 2026-04-25 19:06 | 40.51938 | 37.50951 | 32115 ft | 457 kts | 288° |
| 2026-04-25 19:06 | 40.55381 | 37.39271 | 32122 ft | 457 kts | 288° |
| 2026-04-25 19:07 | 40.58813 | 37.27568 | 32078 ft | 457 kts | 288° |
| 2026-04-25 19:08 | 40.62231 | 37.15875 | 32075 ft | 456 kts | 288° |
| 2026-04-25 19:09 | 40.66384 | 37.01583 | 32065 ft | 456 kts | 288° |
| 2026-04-25 19:10 | 40.70158 | 36.88536 | 32066 ft | 456 kts | 288° |
| 2026-04-25 19:10 | 40.72412 | 36.80710 | 32074 ft | 457 kts | 288° |
| 2026-04-25 19:11 | 40.74647 | 36.72925 | 32072 ft | 457 kts | 288° |
| 2026-04-25 19:11 | 40.76895 | 36.65080 | 32083 ft | 457 kts | 288° |
| 2026-04-25 19:12 | 40.79149 | 36.57223 | 32077 ft | 458 kts | 288° |
| 2026-04-25 19:12 | 40.81401 | 36.49362 | 32071 ft | 458 kts | 288° |
| 2026-04-25 19:13 | 40.83646 | 36.41493 | 32064 ft | 457 kts | 288° |
| 2026-04-25 19:13 | 40.85878 | 36.33642 | 32058 ft | 457 kts | 288° |
| 2026-04-25 19:14 | 40.88092 | 36.25836 | 32067 ft | 456 kts | 288° |
| 2026-04-25 19:14 | 40.90308 | 36.17992 | 32067 ft | 456 kts | 288° |
| 2026-04-25 19:15 | 40.92524 | 36.10132 | 32068 ft | 456 kts | 288° |
| 2026-04-25 19:15 | 40.94728 | 36.02243 | 32057 ft | 457 kts | 288° |
| 2026-04-25 19:16 | 40.96887 | 35.94336 | 32056 ft | 457 kts | 288° |
| 2026-04-25 19:16 | 40.99053 | 35.86409 | 32051 ft | 458 kts | 288° |
| 2026-04-25 19:17 | 41.01230 | 35.78534 | 32060 ft | 459 kts | 288° |
| 2026-04-25 19:17 | 41.03442 | 35.70584 | 32053 ft | 459 kts | 288° |
| 2026-04-25 19:18 | 41.05645 | 35.62625 | 32057 ft | 460 kts | 288° |
| 2026-04-25 19:18 | 41.07837 | 35.54664 | 32054 ft | 460 kts | 288° |
| 2026-04-25 19:19 | 41.10022 | 35.46704 | 32052 ft | 459 kts | 288° |
| 2026-04-25 19:19 | 41.12188 | 35.38789 | 32059 ft | 460 kts | 288° |
| 2026-04-25 19:20 | 41.14361 | 35.30817 | 32056 ft | 460 kts | 288° |
| 2026-04-25 19:20 | 41.16529 | 35.22844 | 32056 ft | 459 kts | 288° |
| 2026-04-25 19:21 | 41.18695 | 35.14848 | 32059 ft | 460 kts | 288° |
| 2026-04-25 19:21 | 41.21930 | 35.02861 | 32056 ft | 460 kts | 288° |
| 2026-04-25 19:22 | 41.24081 | 34.94860 | 32051 ft | 460 kts | 288° |
| 2026-04-25 19:23 | 41.27300 | 34.82839 | 32059 ft | 460 kts | 288° |
| 2026-04-25 19:23 | 41.30500 | 34.70833 | 32057 ft | 461 kts | 288° |
| 2026-04-25 19:24 | 41.32639 | 34.62779 | 32056 ft | 462 kts | 288° |
| 2026-04-25 19:25 | 41.36903 | 34.46639 | 32060 ft | 462 kts | 288° |
| 2026-04-25 19:25 | 41.39031 | 34.38543 | 32054 ft | 463 kts | 288° |
| 2026-04-25 19:26 | 41.41149 | 34.30444 | 32057 ft | 463 kts | 287° |
| 2026-04-25 19:26 | 41.43220 | 34.22390 | 32054 ft | 463 kts | 287° |
| 2026-04-25 19:27 | 41.44613 | 34.16964 | 32054 ft | 463 kts | 287° |
| 2026-04-25 19:27 | 41.47393 | 34.06151 | 32049 ft | 463 kts | 288° |
| 2026-04-25 19:28 | 41.49485 | 33.98024 | 32046 ft | 463 kts | 288° |
| 2026-04-25 19:28 | 41.51573 | 33.89885 | 32047 ft | 464 kts | 288° |
| 2026-04-25 19:29 | 41.53655 | 33.81731 | 32047 ft | 464 kts | 288° |
| 2026-04-25 19:29 | 41.55735 | 33.73555 | 32046 ft | 465 kts | 288° |
| 2026-04-25 19:30 | 41.57812 | 33.65370 | 32047 ft | 465 kts | 287° |
| 2026-04-25 19:30 | 41.59885 | 33.57170 | 32046 ft | 465 kts | 287° |
| 2026-04-25 19:31 | 41.61898 | 33.49025 | 32048 ft | 465 kts | 287° |
| 2026-04-25 19:31 | 41.63963 | 33.40839 | 32056 ft | 465 kts | 288° |
| 2026-04-25 19:32 | 41.66028 | 33.32653 | 32057 ft | 464 kts | 287° |
| 2026-04-25 19:32 | 41.67407 | 33.27168 | 32044 ft | 465 kts | 287° |
| 2026-04-25 19:33 | 41.70136 | 33.16244 | 32046 ft | 465 kts | 287° |
| 2026-04-25 19:33 | 41.72182 | 33.08015 | 32047 ft | 466 kts | 287° |
| 2026-04-25 19:34 | 41.74220 | 32.99774 | 32046 ft | 467 kts | 287° |
| 2026-04-25 19:34 | 41.76230 | 32.91495 | 32045 ft | 468 kts | 287° |
| 2026-04-25 19:35 | 41.78223 | 32.83260 | 32035 ft | 468 kts | 287° |
| 2026-04-25 19:35 | 41.80233 | 32.74941 | 32038 ft | 469 kts | 288° |
| 2026-04-25 19:36 | 41.82270 | 32.66637 | 32036 ft | 469 kts | 288° |
| 2026-04-25 19:36 | 41.84317 | 32.58324 | 32037 ft | 469 kts | 288° |
| 2026-04-25 19:37 | 41.86350 | 32.50005 | 32036 ft | 469 kts | 288° |
| 2026-04-25 19:37 | 41.88355 | 32.41670 | 32030 ft | 469 kts | 287° |
| 2026-04-25 19:38 | 41.90307 | 32.33294 | 32028 ft | 470 kts | 288° |
| 2026-04-25 19:38 | 41.92311 | 32.24927 | 32028 ft | 471 kts | 288° |
| 2026-04-25 19:39 | 41.93974 | 32.17961 | 32029 ft | 471 kts | 288° |
| 2026-04-25 19:39 | 41.96284 | 32.08207 | 32028 ft | 471 kts | 288° |
| 2026-04-25 19:40 | 41.98263 | 31.99817 | 32027 ft | 471 kts | 288° |
| 2026-04-25 19:40 | 42.00241 | 31.91412 | 32027 ft | 471 kts | 288° |
| 2026-04-25 19:41 | 42.01892 | 31.84372 | 32028 ft | 471 kts | 288° |
| 2026-04-25 19:41 | 42.03524 | 31.77381 | 32028 ft | 471 kts | 288° |
| 2026-04-25 19:42 | 42.05798 | 31.67609 | 32029 ft | 470 kts | 288° |
| 2026-04-25 19:42 | 42.07743 | 31.59216 | 32029 ft | 470 kts | 288° |
| 2026-04-25 19:43 | 42.08721 | 31.54985 | 32131 ft | 474 kts | 288° |
| 2026-04-25 19:43 | 42.09698 | 31.50750 | 32450 ft | 474 kts | 288° |
| 2026-04-25 19:43 | 42.10673 | 31.46518 | 32882 ft | 471 kts | 288° |
| 2026-04-25 19:43 | 42.11639 | 31.42317 | 33288 ft | 469 kts | 288° |
| 2026-04-25 19:44 | 42.12601 | 31.38124 | 33647 ft | 468 kts | 288° |
| 2026-04-25 19:44 | 42.13562 | 31.33936 | 33930 ft | 468 kts | 288° |
| 2026-04-25 19:44 | 42.15493 | 31.25523 | 34012 ft | 470 kts | 288° |
| 2026-04-25 19:45 | 42.17410 | 31.17132 | 34020 ft | 467 kts | 288° |
| 2026-04-25 19:45 | 42.19314 | 31.08760 | 34024 ft | 465 kts | 288° |
| 2026-04-25 19:46 | 42.21199 | 31.00427 | 34032 ft | 464 kts | 288° |
| 2026-04-25 19:46 | 42.23073 | 30.92150 | 34030 ft | 464 kts | 288° |
| 2026-04-25 19:47 | 42.24952 | 30.83803 | 34024 ft | 465 kts | 288° |
| 2026-04-25 19:47 | 42.26824 | 30.75440 | 34030 ft | 466 kts | 288° |
| 2026-04-25 19:48 | 42.28697 | 30.67038 | 34034 ft | 467 kts | 288° |
| 2026-04-25 19:48 | 42.30569 | 30.58630 | 34022 ft | 468 kts | 288° |
| 2026-04-25 19:49 | 42.32121 | 30.51626 | 34023 ft | 468 kts | 288° |
| 2026-04-25 19:49 | 42.34284 | 30.41818 | 34029 ft | 469 kts | 288° |
| 2026-04-25 19:50 | 42.37074 | 30.29109 | 34033 ft | 470 kts | 288° |
| 2026-04-25 19:51 | 42.38926 | 30.20634 | 34025 ft | 470 kts | 288° |
| 2026-04-25 19:51 | 42.40776 | 30.12130 | 34031 ft | 471 kts | 288° |
| 2026-04-25 19:52 | 42.42619 | 30.03624 | 34025 ft | 471 kts | 288° |
| 2026-04-25 19:52 | 42.44457 | 29.95115 | 34024 ft | 471 kts | 288° |
| 2026-04-25 19:53 | 42.46692 | 29.86797 | 34017 ft | 469 kts | 297° |
| 2026-04-25 19:53 | 42.49988 | 29.79220 | 34021 ft | 466 kts | 305° |
| 2026-04-25 19:54 | 42.53639 | 29.72023 | 34027 ft | 466 kts | 306° |
| 2026-04-25 19:54 | 42.57304 | 29.64776 | 34017 ft | 466 kts | 305° |
| 2026-04-25 19:55 | 42.60945 | 29.57502 | 34012 ft | 465 kts | 305° |
| 2026-04-25 19:55 | 42.64571 | 29.50204 | 34025 ft | 465 kts | 305° |
| 2026-04-25 19:56 | 42.68157 | 29.42966 | 34019 ft | 464 kts | 305° |
| 2026-04-25 19:56 | 42.71760 | 29.35678 | 34024 ft | 463 kts | 305° |
| 2026-04-25 19:57 | 42.75347 | 29.28407 | 34008 ft | 463 kts | 305° |
| 2026-04-25 19:57 | 42.78931 | 29.21122 | 34013 ft | 462 kts | 305° |
| 2026-04-25 19:58 | 42.82500 | 29.13851 | 34007 ft | 461 kts | 305° |
| 2026-04-25 19:58 | 42.86057 | 29.06585 | 34013 ft | 460 kts | 305° |
| 2026-04-25 19:59 | 42.89608 | 28.99317 | 34004 ft | 461 kts | 305° |
| 2026-04-25 19:59 | 42.93153 | 28.92042 | 33997 ft | 460 kts | 305° |
| 2026-04-25 20:00 | 42.96694 | 28.84756 | 34000 ft | 459 kts | 305° |
| 2026-04-25 20:00 | 43.00204 | 28.77521 | 34000 ft | 459 kts | 305° |
| 2026-04-25 20:01 | 43.05482 | 28.66596 | 33999 ft | 459 kts | 305° |
| 2026-04-25 20:01 | 43.08989 | 28.59319 | 34001 ft | 459 kts | 304° |
| 2026-04-25 20:02 | 43.12498 | 28.52021 | 34002 ft | 458 kts | 304° |
| 2026-04-25 20:02 | 43.15997 | 28.44725 | 33999 ft | 458 kts | 304° |
| 2026-04-25 20:03 | 43.19485 | 28.37431 | 34001 ft | 457 kts | 304° |
| 2026-04-25 20:03 | 43.22969 | 28.30130 | 33997 ft | 457 kts | 304° |
| 2026-04-25 20:04 | 43.26444 | 28.22830 | 33993 ft | 457 kts | 304° |
| 2026-04-25 20:04 | 43.29884 | 28.15587 | 33991 ft | 456 kts | 304° |
| 2026-04-25 20:05 | 43.33336 | 28.08298 | 33991 ft | 455 kts | 304° |
| 2026-04-25 20:05 | 43.36779 | 28.01009 | 33989 ft | 454 kts | 304° |
| 2026-04-25 20:06 | 43.40211 | 27.93728 | 33996 ft | 453 kts | 304° |
| 2026-04-25 20:06 | 43.43638 | 27.86440 | 33988 ft | 453 kts | 304° |
| 2026-04-25 20:07 | 43.47049 | 27.79165 | 33989 ft | 452 kts | 304° |
| 2026-04-25 20:07 | 43.50428 | 27.71943 | 33991 ft | 451 kts | 304° |
| 2026-04-25 20:08 | 43.53825 | 27.64663 | 33990 ft | 451 kts | 304° |
| 2026-04-25 20:08 | 43.57215 | 27.57380 | 33990 ft | 451 kts | 304° |
| 2026-04-25 20:09 | 43.60601 | 27.50087 | 33990 ft | 451 kts | 304° |
| 2026-04-25 20:09 | 43.63982 | 27.42788 | 33991 ft | 452 kts | 304° |
| 2026-04-25 20:10 | 43.67363 | 27.35467 | 33991 ft | 452 kts | 304° |
| 2026-04-25 20:10 | 43.70750 | 27.28117 | 33991 ft | 453 kts | 304° |
| 2026-04-25 20:11 | 43.74108 | 27.20812 | 33989 ft | 453 kts | 304° |
| 2026-04-25 20:11 | 43.77487 | 27.13447 | 33994 ft | 453 kts | 304° |
| 2026-04-25 20:12 | 43.80860 | 27.06073 | 33991 ft | 453 kts | 304° |
| 2026-04-25 20:12 | 43.83115 | 27.01132 | 33992 ft | 453 kts | 304° |
| 2026-04-25 20:13 | 43.87587 | 26.91306 | 33992 ft | 453 kts | 304° |
| 2026-04-25 20:13 | 43.90943 | 26.83916 | 33992 ft | 453 kts | 304° |
| 2026-04-25 20:14 | 43.94268 | 26.76574 | 33992 ft | 452 kts | 304° |
| 2026-04-25 20:14 | 43.97608 | 26.69178 | 33989 ft | 452 kts | 304° |
| 2026-04-25 20:15 | 44.00941 | 26.61777 | 33986 ft | 451 kts | 304° |
| 2026-04-25 20:15 | 44.04261 | 26.54388 | 33982 ft | 449 kts | 303° |
| 2026-04-25 20:16 | 44.07558 | 26.47027 | 33973 ft | 447 kts | 303° |
| 2026-04-25 20:16 | 44.10839 | 26.39691 | 33977 ft | 446 kts | 303° |
| 2026-04-25 20:17 | 44.14108 | 26.32364 | 33980 ft | 445 kts | 303° |
| 2026-04-25 20:17 | 44.17363 | 26.25046 | 33974 ft | 445 kts | 303° |
| 2026-04-25 20:18 | 44.20619 | 26.17705 | 33968 ft | 445 kts | 303° |
| 2026-04-25 20:18 | 44.23852 | 26.10399 | 33975 ft | 446 kts | 303° |
| 2026-04-25 20:19 | 44.27111 | 26.03016 | 33971 ft | 447 kts | 303° |
| 2026-04-25 20:19 | 44.30373 | 25.95608 | 33970 ft | 448 kts | 303° |
| 2026-04-25 20:20 | 44.33626 | 25.88195 | 33974 ft | 448 kts | 303° |
| 2026-04-25 20:20 | 44.36882 | 25.80766 | 33976 ft | 448 kts | 303° |
| 2026-04-25 20:21 | 44.40113 | 25.73376 | 33974 ft | 448 kts | 303° |
| 2026-04-25 20:21 | 44.43350 | 25.65941 | 33969 ft | 448 kts | 303° |
| 2026-04-25 20:22 | 44.45514 | 25.60958 | 33969 ft | 447 kts | 303° |
| 2026-04-25 20:22 | 44.49804 | 25.51063 | 33973 ft | 446 kts | 303° |
| 2026-04-25 20:23 | 44.53015 | 25.43636 | 33972 ft | 445 kts | 302° |
| 2026-04-25 20:23 | 44.56219 | 25.36207 | 33959 ft | 445 kts | 302° |
| 2026-04-25 20:24 | 44.59413 | 25.28783 | 33964 ft | 444 kts | 302° |
| 2026-04-25 20:24 | 44.62596 | 25.21363 | 33969 ft | 443 kts | 302° |
| 2026-04-25 20:25 | 44.65749 | 25.13993 | 33967 ft | 442 kts | 302° |
| 2026-04-25 20:25 | 44.68906 | 25.06593 | 33958 ft | 442 kts | 302° |
| 2026-04-25 20:26 | 44.72065 | 24.99172 | 33959 ft | 442 kts | 302° |
| 2026-04-25 20:26 | 44.75215 | 24.91756 | 33966 ft | 441 kts | 302° |
| 2026-04-25 20:27 | 44.78358 | 24.84331 | 33968 ft | 441 kts | 302° |
| 2026-04-25 20:27 | 44.81493 | 24.76906 | 33961 ft | 441 kts | 301° |
| 2026-04-25 20:28 | 44.84624 | 24.69470 | 33966 ft | 441 kts | 301° |
| 2026-04-25 20:28 | 44.87754 | 24.62019 | 33967 ft | 441 kts | 301° |
| 2026-04-25 20:29 | 44.90351 | 24.55825 | 33965 ft | 442 kts | 301° |
| 2026-04-25 20:29 | 44.93979 | 24.47149 | 33964 ft | 441 kts | 301° |
| 2026-04-25 20:30 | 44.96590 | 24.40884 | 33966 ft | 441 kts | 301° |
| 2026-04-25 20:30 | 44.99682 | 24.33449 | 33964 ft | 441 kts | 301° |
| 2026-04-25 20:31 | 45.02778 | 24.25984 | 33966 ft | 440 kts | 301° |
| 2026-04-25 20:31 | 45.05868 | 24.18512 | 33967 ft | 439 kts | 301° |
| 2026-04-25 20:32 | 45.08947 | 24.11048 | 33966 ft | 439 kts | 301° |
| 2026-04-25 20:32 | 45.12021 | 24.03580 | 33963 ft | 438 kts | 301° |
| 2026-04-25 20:33 | 45.15062 | 23.96170 | 33962 ft | 438 kts | 301° |
| 2026-04-25 20:33 | 45.17617 | 23.89932 | 33964 ft | 437 kts | 300° |
| 2026-04-25 20:34 | 45.21153 | 23.81275 | 33970 ft | 436 kts | 300° |
| 2026-04-25 20:34 | 45.24177 | 23.73840 | 33972 ft | 435 kts | 300° |
| 2026-04-25 20:35 | 45.27195 | 23.66406 | 33979 ft | 435 kts | 300° |
| 2026-04-25 20:35 | 45.30214 | 23.58951 | 33975 ft | 435 kts | 300° |
| 2026-04-25 20:36 | 45.33226 | 23.51493 | 33973 ft | 435 kts | 300° |
| 2026-04-25 20:36 | 45.36237 | 23.44019 | 33981 ft | 436 kts | 300° |
| 2026-04-25 20:37 | 45.39242 | 23.36537 | 33977 ft | 436 kts | 300° |
| 2026-04-25 20:37 | 45.42248 | 23.29037 | 33975 ft | 436 kts | 300° |
| 2026-04-25 20:38 | 45.45230 | 23.21573 | 33978 ft | 436 kts | 300° |
| 2026-04-25 20:38 | 45.48228 | 23.14047 | 33970 ft | 436 kts | 300° |
| 2026-04-25 20:39 | 45.51220 | 23.06523 | 33972 ft | 436 kts | 300° |
| 2026-04-25 20:39 | 45.53702 | 23.00263 | 33974 ft | 436 kts | 300° |
| 2026-04-25 20:40 | 45.57179 | 22.91465 | 33975 ft | 436 kts | 299° |
| 2026-04-25 20:40 | 45.60149 | 22.83928 | 33972 ft | 435 kts | 299° |
| 2026-04-25 20:41 | 45.63118 | 22.76379 | 33973 ft | 435 kts | 299° |
| 2026-04-25 20:41 | 45.66077 | 22.68830 | 33979 ft | 435 kts | 299° |
| 2026-04-25 20:42 | 45.69008 | 22.61333 | 33974 ft | 435 kts | 299° |
| 2026-04-25 20:42 | 45.71953 | 22.53783 | 33974 ft | 435 kts | 299° |
| 2026-04-25 20:43 | 45.74894 | 22.46213 | 33979 ft | 435 kts | 298° |
| 2026-04-25 20:43 | 45.77834 | 22.38635 | 33976 ft | 435 kts | 298° |
| 2026-04-25 20:44 | 45.80762 | 22.31062 | 33980 ft | 434 kts | 298° |
| 2026-04-25 20:44 | 45.83681 | 22.23490 | 33982 ft | 433 kts | 298° |
| 2026-04-25 20:45 | 45.86569 | 22.15981 | 33980 ft | 432 kts | 298° |
| 2026-04-25 20:45 | 45.89467 | 22.08422 | 33982 ft | 432 kts | 298° |
| 2026-04-25 20:46 | 45.92358 | 22.00869 | 33981 ft | 431 kts | 298° |
| 2026-04-25 20:46 | 45.95244 | 21.93298 | 33983 ft | 431 kts | 298° |
| 2026-04-25 20:47 | 45.98122 | 21.85728 | 33980 ft | 431 kts | 298° |
| 2026-04-25 20:47 | 46.00995 | 21.78152 | 33968 ft | 431 kts | 298° |
| 2026-04-25 20:48 | 46.03845 | 21.70617 | 33969 ft | 432 kts | 298° |
| 2026-04-25 20:48 | 46.06713 | 21.63015 | 33974 ft | 432 kts | 298° |
| 2026-04-25 20:49 | 46.09572 | 21.55415 | 33971 ft | 431 kts | 297° |
| 2026-04-25 20:49 | 46.12423 | 21.47809 | 33972 ft | 431 kts | 297° |
| 2026-04-25 20:50 | 46.15268 | 21.40206 | 33971 ft | 431 kts | 297° |
| 2026-04-25 20:50 | 46.18105 | 21.32598 | 33967 ft | 430 kts | 297° |
| 2026-04-25 20:51 | 46.20938 | 21.24979 | 33965 ft | 430 kts | 297° |
| 2026-04-25 20:51 | 46.23759 | 21.17375 | 33964 ft | 429 kts | 297° |
| 2026-04-25 20:52 | 46.26101 | 21.11045 | 33962 ft | 429 kts | 297° |
| 2026-04-25 20:52 | 46.29382 | 21.02214 | 33960 ft | 429 kts | 297° |
| 2026-04-25 20:53 | 46.32214 | 20.94606 | 33961 ft | 429 kts | 297° |
| 2026-04-25 20:53 | 46.35038 | 20.86989 | 33962 ft | 429 kts | 297° |
| 2026-04-25 20:54 | 46.37850 | 20.79380 | 33962 ft | 429 kts | 297° |
| 2026-04-25 20:54 | 46.40659 | 20.71753 | 33965 ft | 429 kts | 297° |
| 2026-04-25 20:55 | 46.42948 | 20.65525 | 33952 ft | 429 kts | 297° |